Terminal Aerodrome Forecast
Issued by NWS

Home | Current Version | Previous Version | Text Only | Print | Product List | Glossary On
Versions: 1 2 3 4 5 6 7 8 9 10 11 12 13 14 15 16 17
057
FTUS43 KGRB 071737
TAFMTW
TAF
KMTW 071737Z 0718/0818 26020G30KT P6SM SCT020
      TEMPO 0718/0722 -SN BKN020
     FM080200 26014G22KT P6SM -SN OVC025
     FM081600 29018G30KT P6SM -SN OVC025=

USA.gov is the U.S. government's official web portal to all federal, state and local government web resources and services.